sensor_id;sensor_type;location;lat;lon;timestamp;temperature;humidity
83964;DHT22;73994;50.868;5.420;2023-12-20T00:01:00;6.30;85.90
83964;DHT22;73994;50.868;5.420;2023-12-20T00:03:25;6.20;85.80
83964;DHT22;73994;50.868;5.420;2023-12-20T00:05:51;6.10;85.90
83964;DHT22;73994;50.868;5.420;2023-12-20T00:08:17;6.00;85.90
83964;DHT22;73994;50.868;5.420;2023-12-20T00:10:43;5.90;85.80
83964;DHT22;73994;50.868;5.420;2023-12-20T00:13:10;5.90;85.80
83964;DHT22;73994;50.868;5.420;2023-12-20T00:15:35;5.80;85.80
83964;DHT22;73994;50.868;5.420;2023-12-20T00:18:01;5.80;85.80
83964;DHT22;73994;50.868;5.420;2023-12-20T00:20:28;5.70;85.90
83964;DHT22;73994;50.868;5.420;2023-12-20T00:22:58;5.60;85.80
83964;DHT22;73994;50.868;5.420;2023-12-20T00:25:26;5.50;85.80
83964;DHT22;73994;50.868;5.420;2023-12-20T00:27:52;5.50;85.80
83964;DHT22;73994;50.868;5.420;2023-12-20T00:30:18;5.50;85.80
83964;DHT22;73994;50.868;5.420;2023-12-20T00:32:44;5.60;86.00
83964;DHT22;73994;50.868;5.420;2023-12-20T00:35:15;5.70;86.10
83964;DHT22;73994;50.868;5.420;2023-12-20T00:37:42;5.80;86.00
83964;DHT22;73994;50.868;5.420;2023-12-20T00:40:08;5.60;85.90
83964;DHT22;73994;50.868;5.420;2023-12-20T00:42:34;5.50;85.70
83964;DHT22;73994;50.868;5.420;2023-12-20T00:45:01;5.30;85.80
83964;DHT22;73994;50.868;5.420;2023-12-20T00:47:27;5.30;85.70
83964;DHT22;73994;50.868;5.420;2023-12-20T00:49:53;5.10;85.70
83964;DHT22;73994;50.868;5.420;2023-12-20T00:52:19;5.10;85.70
83964;DHT22;73994;50.868;5.420;2023-12-20T00:54:45;5.00;85.80
83964;DHT22;73994;50.868;5.420;2023-12-20T00:57:11;5.20;85.90
83964;DHT22;73994;50.868;5.420;2023-12-20T00:59:36;5.30;86.00
83964;DHT22;73994;50.868;5.420;2023-12-20T01:02:02;5.40;86.00
83964;DHT22;73994;50.868;5.420;2023-12-20T01:04:28;5.50;86.00
83964;DHT22;73994;50.868;5.420;2023-12-20T01:06:54;5.40;85.90
83964;DHT22;73994;50.868;5.420;2023-12-20T01:09:19;5.30;85.80
83964;DHT22;73994;50.868;5.420;2023-12-20T01:11:45;5.20;85.80
83964;DHT22;73994;50.868;5.420;2023-12-20T01:14:14;5.10;85.70
83964;DHT22;73994;50.868;5.420;2023-12-20T01:16:39;5.00;85.80
83964;DHT22;73994;50.868;5.420;2023-12-20T01:19:05;5.10;85.80
83964;DHT22;73994;50.868;5.420;2023-12-20T01:21:30;5.10;85.90
83964;DHT22;73994;50.868;5.420;2023-12-20T01:23:56;5.10;85.80
83964;DHT22;73994;50.868;5.420;2023-12-20T01:26:22;5.00;85.90
83964;DHT22;73994;50.868;5.420;2023-12-20T01:28:47;5.00;85.90
83964;DHT22;73994;50.868;5.420;2023-12-20T01:31:13;5.10;85.90
83964;DHT22;73994;50.868;5.420;2023-12-20T01:33:39;5.10;85.90
83964;DHT22;73994;50.868;5.420;2023-12-20T01:36:05;5.30;85.90
83964;DHT22;73994;50.868;5.420;2023-12-20T01:38:30;5.30;86.00
83964;DHT22;73994;50.868;5.420;2023-12-20T01:40:56;5.30;85.90
83964;DHT22;73994;50.868;5.420;2023-12-20T01:43:22;5.10;85.80
83964;DHT22;73994;50.868;5.420;2023-12-20T01:45:48;5.00;85.70
83964;DHT22;73994;50.868;5.420;2023-12-20T01:48:15;4.90;85.70
83964;DHT22;73994;50.868;5.420;2023-12-20T01:50:41;4.90;85.70
83964;DHT22;73994;50.868;5.420;2023-12-20T01:53:09;4.80;85.70
83964;DHT22;73994;50.868;5.420;2023-12-20T01:55:37;4.70;85.70
83964;DHT22;73994;50.868;5.420;2023-12-20T01:58:04;4.70;85.70
83964;DHT22;73994;50.868;5.420;2023-12-20T02:00:30;4.70;85.60
83964;DHT22;73994;50.868;5.420;2023-12-20T02:02:56;4.60;85.70
83964;DHT22;73994;50.868;5.420;2023-12-20T02:05:26;4.60;85.70
83964;DHT22;73994;50.868;5.420;2023-12-20T02:07:53;4.50;85.70
83964;DHT22;73994;50.868;5.420;2023-12-20T02:10:19;4.50;85.70
83964;DHT22;73994;50.868;5.420;2023-12-20T02:12:44;4.70;85.80
83964;DHT22;73994;50.868;5.420;2023-12-20T02:15:10;4.60;85.80
83964;DHT22;73994;50.868;5.420;2023-12-20T02:17:36;4.50;85.70
83964;DHT22;73994;50.868;5.420;2023-12-20T02:20:04;4.50;85.70
83964;DHT22;73994;50.868;5.420;2023-12-20T02:22:31;4.50;85.70
83964;DHT22;73994;50.868;5.420;2023-12-20T02:24:57;4.50;85.70
83964;DHT22;73994;50.868;5.420;2023-12-20T02:27:23;4.50;85.70
83964;DHT22;73994;50.868;5.420;2023-12-20T02:29:50;4.50;85.70
83964;DHT22;73994;50.868;5.420;2023-12-20T02:32:17;4.40;85.70
83964;DHT22;73994;50.868;5.420;2023-12-20T02:34:43;4.40;85.70
83964;DHT22;73994;50.868;5.420;2023-12-20T02:37:09;4.40;85.70
83964;DHT22;73994;50.868;5.420;2023-12-20T02:39:34;4.40;85.70
83964;DHT22;73994;50.868;5.420;2023-12-20T02:42:00;4.40;85.70
83964;DHT22;73994;50.868;5.420;2023-12-20T02:44:26;4.30;85.70
83964;DHT22;73994;50.868;5.420;2023-12-20T02:46:51;4.30;85.70
83964;DHT22;73994;50.868;5.420;2023-12-20T02:49:17;4.30;85.70
83964;DHT22;73994;50.868;5.420;2023-12-20T02:51:43;4.30;85.70
83964;DHT22;73994;50.868;5.420;2023-12-20T02:54:09;4.30;85.70
83964;DHT22;73994;50.868;5.420;2023-12-20T02:56:35;4.30;85.70
83964;DHT22;73994;50.868;5.420;2023-12-20T02:59:01;4.20;85.70
83964;DHT22;73994;50.868;5.420;2023-12-20T03:01:27;4.20;85.70
83964;DHT22;73994;50.868;5.420;2023-12-20T03:03:53;4.20;85.70
83964;DHT22;73994;50.868;5.420;2023-12-20T03:06:19;4.20;85.70
83964;DHT22;73994;50.868;5.420;2023-12-20T03:08:45;4.20;85.60
83964;DHT22;73994;50.868;5.420;2023-12-20T03:11:11;4.20;85.70
83964;DHT22;73994;50.868;5.420;2023-12-20T03:13:37;4.20;85.70
83964;DHT22;73994;50.868;5.420;2023-12-20T03:16:12;4.20;85.70
83964;DHT22;73994;50.868;5.420;2023-12-20T03:18:38;4.30;85.80
83964;DHT22;73994;50.868;5.420;2023-12-20T03:21:04;4.40;85.80
83964;DHT22;73994;50.868;5.420;2023-12-20T03:23:30;4.40;85.80
83964;DHT22;73994;50.868;5.420;2023-12-20T03:25:58;4.50;85.90
83964;DHT22;73994;50.868;5.420;2023-12-20T03:28:23;4.50;85.90
83964;DHT22;73994;50.868;5.420;2023-12-20T03:30:49;4.60;85.80
83964;DHT22;73994;50.868;5.420;2023-12-20T03:33:15;4.60;85.80
83964;DHT22;73994;50.868;5.420;2023-12-20T03:35:41;4.60;85.80
83964;DHT22;73994;50.868;5.420;2023-12-20T03:38:07;4.60;85.80
83964;DHT22;73994;50.868;5.420;2023-12-20T03:40:32;4.60;85.80
83964;DHT22;73994;50.868;5.420;2023-12-20T03:42:58;4.50;85.80
83964;DHT22;73994;50.868;5.420;2023-12-20T03:45:24;4.60;85.80
83964;DHT22;73994;50.868;5.420;2023-12-20T03:47:49;4.60;85.80
83964;DHT22;73994;50.868;5.420;2023-12-20T03:50:15;4.60;85.80
83964;DHT22;73994;50.868;5.420;2023-12-20T03:52:41;4.60;85.70
83964;DHT22;73994;50.868;5.420;2023-12-20T03:55:07;4.50;85.70
83964;DHT22;73994;50.868;5.420;2023-12-20T03:57:32;4.60;85.80
83964;DHT22;73994;50.868;5.420;2023-12-20T03:59:58;4.70;85.90
83964;DHT22;73994;50.868;5.420;2023-12-20T04:02:24;4.70;85.80
83964;DHT22;73994;50.868;5.420;2023-12-20T04:04:50;4.70;85.90
83964;DHT22;73994;50.868;5.420;2023-12-20T04:07:16;4.70;85.80
83964;DHT22;73994;50.868;5.420;2023-12-20T04:09:41;4.70;85.70
83964;DHT22;73994;50.868;5.420;2023-12-20T04:12:07;4.70;85.80
83964;DHT22;73994;50.868;5.420;2023-12-20T04:14:33;4.80;85.80
83964;DHT22;73994;50.868;5.420;2023-12-20T04:16:58;4.70;85.70
83964;DHT22;73994;50.868;5.420;2023-12-20T04:19:24;4.80;85.80
83964;DHT22;73994;50.868;5.420;2023-12-20T04:21:50;4.90;85.80
83964;DHT22;73994;50.868;5.420;2023-12-20T04:24:15;4.90;85.80
83964;DHT22;73994;50.868;5.420;2023-12-20T04:26:41;4.90;85.80
83964;DHT22;73994;50.868;5.420;2023-12-20T04:29:07;5.00;85.80
83964;DHT22;73994;50.868;5.420;2023-12-20T04:31:32;5.00;85.90
83964;DHT22;73994;50.868;5.420;2023-12-20T04:33:59;5.00;85.80
83964;DHT22;73994;50.868;5.420;2023-12-20T04:36:24;5.00;85.80
83964;DHT22;73994;50.868;5.420;2023-12-20T04:38:53;5.00;85.80
83964;DHT22;73994;50.868;5.420;2023-12-20T04:41:18;5.00;85.80
83964;DHT22;73994;50.868;5.420;2023-12-20T04:43:44;4.90;85.80
83964;DHT22;73994;50.868;5.420;2023-12-20T04:46:10;4.80;85.70
83964;DHT22;73994;50.868;5.420;2023-12-20T04:48:36;4.70;85.70
83964;DHT22;73994;50.868;5.420;2023-12-20T04:51:02;4.80;85.80
83964;DHT22;73994;50.868;5.420;2023-12-20T04:53:27;4.90;85.80
83964;DHT22;73994;50.868;5.420;2023-12-20T04:55:53;4.80;85.70
83964;DHT22;73994;50.868;5.420;2023-12-20T04:58:19;4.90;85.80
83964;DHT22;73994;50.868;5.420;2023-12-20T05:00:45;4.90;85.80
83964;DHT22;73994;50.868;5.420;2023-12-20T05:03:10;4.90;85.70
83964;DHT22;73994;50.868;5.420;2023-12-20T05:05:36;4.70;85.70
83964;DHT22;73994;50.868;5.420;2023-12-20T05:08:02;4.60;85.50
83964;DHT22;73994;50.868;5.420;2023-12-20T05:10:36;4.50;85.60
83964;DHT22;73994;50.868;5.420;2023-12-20T05:13:02;4.50;85.60
83964;DHT22;73994;50.868;5.420;2023-12-20T05:15:28;4.50;85.70
83964;DHT22;73994;50.868;5.420;2023-12-20T05:17:53;4.70;85.80
83964;DHT22;73994;50.868;5.420;2023-12-20T05:20:19;4.70;85.80
83964;DHT22;73994;50.868;5.420;2023-12-20T05:22:45;4.70;85.80
83964;DHT22;73994;50.868;5.420;2023-12-20T05:25:11;4.60;85.70
83964;DHT22;73994;50.868;5.420;2023-12-20T05:27:37;4.60;85.70
83964;DHT22;73994;50.868;5.420;2023-12-20T05:30:02;4.60;85.70
83964;DHT22;73994;50.868;5.420;2023-12-20T05:32:29;4.60;85.70
83964;DHT22;73994;50.868;5.420;2023-12-20T05:34:55;4.60;85.70
83964;DHT22;73994;50.868;5.420;2023-12-20T05:37:21;4.60;85.70
83964;DHT22;73994;50.868;5.420;2023-12-20T05:39:46;4.50;85.70
83964;DHT22;73994;50.868;5.420;2023-12-20T05:42:13;4.50;85.60
83964;DHT22;73994;50.868;5.420;2023-12-20T05:44:38;4.50;85.60
83964;DHT22;73994;50.868;5.420;2023-12-20T05:47:05;4.40;85.60
83964;DHT22;73994;50.868;5.420;2023-12-20T05:49:30;4.40;85.60
83964;DHT22;73994;50.868;5.420;2023-12-20T05:51:57;4.30;85.50
83964;DHT22;73994;50.868;5.420;2023-12-20T05:54:22;4.30;85.50
83964;DHT22;73994;50.868;5.420;2023-12-20T05:56:48;4.20;85.50
83964;DHT22;73994;50.868;5.420;2023-12-20T05:59:14;4.20;85.50
83964;DHT22;73994;50.868;5.420;2023-12-20T06:01:40;4.10;85.50
83964;DHT22;73994;50.868;5.420;2023-12-20T06:04:05;4.10;85.50
83964;DHT22;73994;50.868;5.420;2023-12-20T06:06:31;4.10;85.50
83964;DHT22;73994;50.868;5.420;2023-12-20T06:08:57;4.10;85.50
83964;DHT22;73994;50.868;5.420;2023-12-20T06:11:23;4.00;85.50
83964;DHT22;73994;50.868;5.420;2023-12-20T06:13:48;4.00;85.50
83964;DHT22;73994;50.868;5.420;2023-12-20T06:16:17;4.00;85.50
83964;DHT22;73994;50.868;5.420;2023-12-20T06:18:43;4.00;85.60
83964;DHT22;73994;50.868;5.420;2023-12-20T06:21:09;4.00;85.60
83964;DHT22;73994;50.868;5.420;2023-12-20T06:23:38;4.00;85.60
83964;DHT22;73994;50.868;5.420;2023-12-20T06:26:04;4.00;85.60
83964;DHT22;73994;50.868;5.420;2023-12-20T06:28:30;4.00;85.60
83964;DHT22;73994;50.868;5.420;2023-12-20T06:30:55;4.00;85.50
83964;DHT22;73994;50.868;5.420;2023-12-20T06:33:22;3.90;85.60
83964;DHT22;73994;50.868;5.420;2023-12-20T06:35:49;3.90;85.60
83964;DHT22;73994;50.868;5.420;2023-12-20T06:38:15;4.00;85.50
83964;DHT22;73994;50.868;5.420;2023-12-20T06:40:40;4.00;85.60
83964;DHT22;73994;50.868;5.420;2023-12-20T06:43:08;4.10;85.70
83964;DHT22;73994;50.868;5.420;2023-12-20T06:45:33;4.20;85.70
83964;DHT22;73994;50.868;5.420;2023-12-20T06:47:59;4.20;85.80
83964;DHT22;73994;50.868;5.420;2023-12-20T06:50:25;4.30;85.70
83964;DHT22;73994;50.868;5.420;2023-12-20T06:52:50;4.30;85.70
83964;DHT22;73994;50.868;5.420;2023-12-20T06:55:17;4.40;85.70
83964;DHT22;73994;50.868;5.420;2023-12-20T06:57:43;4.40;85.70
83964;DHT22;73994;50.868;5.420;2023-12-20T07:00:10;4.40;85.70
83964;DHT22;73994;50.868;5.420;2023-12-20T07:02:36;4.50;85.70
83964;DHT22;73994;50.868;5.420;2023-12-20T07:05:02;4.50;85.70
83964;DHT22;73994;50.868;5.420;2023-12-20T07:07:31;4.50;85.70
83964;DHT22;73994;50.868;5.420;2023-12-20T07:09:56;4.50;85.70
83964;DHT22;73994;50.868;5.420;2023-12-20T07:12:22;4.50;85.70
83964;DHT22;73994;50.868;5.420;2023-12-20T07:14:48;4.50;85.60
83964;DHT22;73994;50.868;5.420;2023-12-20T07:17:13;4.50;85.60
83964;DHT22;73994;50.868;5.420;2023-12-20T07:19:41;4.50;85.70
83964;DHT22;73994;50.868;5.420;2023-12-20T07:22:07;4.40;85.50
83964;DHT22;73994;50.868;5.420;2023-12-20T07:24:33;4.30;85.40
83964;DHT22;73994;50.868;5.420;2023-12-20T07:27:00;4.20;85.50
83964;DHT22;73994;50.868;5.420;2023-12-20T07:29:25;4.20;85.50
83964;DHT22;73994;50.868;5.420;2023-12-20T07:31:53;4.10;85.50
83964;DHT22;73994;50.868;5.420;2023-12-20T07:34:22;4.10;85.40
83964;DHT22;73994;50.868;5.420;2023-12-20T07:36:47;4.10;85.50
83964;DHT22;73994;50.868;5.420;2023-12-20T07:39:14;4.10;85.50
83964;DHT22;73994;50.868;5.420;2023-12-20T07:41:40;4.10;85.50
83964;DHT22;73994;50.868;5.420;2023-12-20T07:44:06;4.10;85.50
83964;DHT22;73994;50.868;5.420;2023-12-20T07:46:33;4.10;85.50
83964;DHT22;73994;50.868;5.420;2023-12-20T07:48:58;4.10;85.50
83964;DHT22;73994;50.868;5.420;2023-12-20T07:51:24;4.10;85.50
83964;DHT22;73994;50.868;5.420;2023-12-20T07:53:51;4.10;85.50
83964;DHT22;73994;50.868;5.420;2023-12-20T07:56:17;4.10;85.50
83964;DHT22;73994;50.868;5.420;2023-12-20T07:58:44;4.20;85.50
83964;DHT22;73994;50.868;5.420;2023-12-20T08:01:11;4.20;85.50
83964;DHT22;73994;50.868;5.420;2023-12-20T08:03:36;4.10;85.40
83964;DHT22;73994;50.868;5.420;2023-12-20T08:06:03;4.10;85.40
83964;DHT22;73994;50.868;5.420;2023-12-20T08:08:28;4.10;85.40
83964;DHT22;73994;50.868;5.420;2023-12-20T08:10:54;4.10;85.40
83964;DHT22;73994;50.868;5.420;2023-12-20T08:13:20;4.20;85.40
83964;DHT22;73994;50.868;5.420;2023-12-20T08:15:50;4.10;85.30
83964;DHT22;73994;50.868;5.420;2023-12-20T08:18:16;4.20;85.30
83964;DHT22;73994;50.868;5.420;2023-12-20T08:20:41;4.20;85.40
83964;DHT22;73994;50.868;5.420;2023-12-20T08:23:07;4.20;85.40
83964;DHT22;73994;50.868;5.420;2023-12-20T08:25:33;4.20;85.40
83964;DHT22;73994;50.868;5.420;2023-12-20T08:27:58;4.30;85.30
83964;DHT22;73994;50.868;5.420;2023-12-20T08:30:24;4.30;85.30
83964;DHT22;73994;50.868;5.420;2023-12-20T08:32:50;4.30;85.30
83964;DHT22;73994;50.868;5.420;2023-12-20T08:35:16;4.30;85.30
83964;DHT22;73994;50.868;5.420;2023-12-20T08:37:44;4.40;85.40
83964;DHT22;73994;50.868;5.420;2023-12-20T08:40:10;4.40;85.30
83964;DHT22;73994;50.868;5.420;2023-12-20T08:42:35;4.50;85.30
83964;DHT22;73994;50.868;5.420;2023-12-20T08:45:02;4.50;85.30
83964;DHT22;73994;50.868;5.420;2023-12-20T08:47:29;4.50;85.30
83964;DHT22;73994;50.868;5.420;2023-12-20T08:49:57;4.60;85.30
83964;DHT22;73994;50.868;5.420;2023-12-20T08:52:25;4.60;85.20
83964;DHT22;73994;50.868;5.420;2023-12-20T08:54:53;4.70;85.30
83964;DHT22;73994;50.868;5.420;2023-12-20T08:57:22;4.90;85.40
83964;DHT22;73994;50.868;5.420;2023-12-20T08:59:51;5.00;85.40
83964;DHT22;73994;50.868;5.420;2023-12-20T09:02:17;5.00;85.30
83964;DHT22;73994;50.868;5.420;2023-12-20T09:04:43;5.20;85.10
83964;DHT22;73994;50.868;5.420;2023-12-20T09:07:25;5.30;85.20
83964;DHT22;73994;50.868;5.420;2023-12-20T09:09:52;5.30;84.90
83964;DHT22;73994;50.868;5.420;2023-12-20T09:12:21;5.30;85.00
83964;DHT22;73994;50.868;5.420;2023-12-20T09:14:48;5.50;85.20
83964;DHT22;73994;50.868;5.420;2023-12-20T09:17:14;5.40;85.00
83964;DHT22;73994;50.868;5.420;2023-12-20T09:19:40;5.30;84.80
83964;DHT22;73994;50.868;5.420;2023-12-20T09:22:06;5.20;84.50
83964;DHT22;73994;50.868;5.420;2023-12-20T09:24:32;5.30;82.30
83964;DHT22;73994;50.868;5.420;2023-12-20T09:26:57;5.50;80.80
83964;DHT22;73994;50.868;5.420;2023-12-20T09:29:23;5.60;81.00
83964;DHT22;73994;50.868;5.420;2023-12-20T09:31:50;5.80;81.00
83964;DHT22;73994;50.868;5.420;2023-12-20T09:34:16;6.00;80.50
83964;DHT22;73994;50.868;5.420;2023-12-20T09:36:42;6.10;79.40
83964;DHT22;73994;50.868;5.420;2023-12-20T09:39:19;6.20;79.90
83964;DHT22;73994;50.868;5.420;2023-12-20T09:41:59;6.30;80.40
83964;DHT22;73994;50.868;5.420;2023-12-20T09:44:25;6.40;79.40
83964;DHT22;73994;50.868;5.420;2023-12-20T09:46:52;6.80;80.30
83964;DHT22;73994;50.868;5.420;2023-12-20T09:49:18;6.90;77.80
83964;DHT22;73994;50.868;5.420;2023-12-20T09:51:46;6.70;77.80
83964;DHT22;73994;50.868;5.420;2023-12-20T09:54:18;6.60;78.60
83964;DHT22;73994;50.868;5.420;2023-12-20T09:56:45;6.60;78.90
83964;DHT22;73994;50.868;5.420;2023-12-20T09:59:10;6.70;77.80
83964;DHT22;73994;50.868;5.420;2023-12-20T10:01:41;7.00;78.70
83964;DHT22;73994;50.868;5.420;2023-12-20T10:04:09;7.20;77.30
83964;DHT22;73994;50.868;5.420;2023-12-20T10:06:39;7.60;78.40
83964;DHT22;73994;50.868;5.420;2023-12-20T10:09:04;7.80;76.00
83964;DHT22;73994;50.868;5.420;2023-12-20T10:11:31;8.00;75.50
83964;DHT22;73994;50.868;5.420;2023-12-20T10:13:59;8.90;78.40
83964;DHT22;73994;50.868;5.420;2023-12-20T10:16:28;9.90;72.00
83964;DHT22;73994;50.868;5.420;2023-12-20T10:18:55;11.00;71.90
83964;DHT22;73994;50.868;5.420;2023-12-20T10:21:22;11.10;68.60
83964;DHT22;73994;50.868;5.420;2023-12-20T10:23:48;12.10;67.00
83964;DHT22;73994;50.868;5.420;2023-12-20T10:26:22;13.20;68.70
83964;DHT22;73994;50.868;5.420;2023-12-20T10:28:56;13.90;68.70
83964;DHT22;73994;50.868;5.420;2023-12-20T10:33:59;15.00;62.60
83964;DHT22;73994;50.868;5.420;2023-12-20T10:36:28;12.20;65.10
83964;DHT22;73994;50.868;5.420;2023-12-20T10:38:55;11.90;66.00
83964;DHT22;73994;50.868;5.420;2023-12-20T10:41:29;11.80;65.50
83964;DHT22;73994;50.868;5.420;2023-12-20T10:44:03;10.50;68.70
83964;DHT22;73994;50.868;5.420;2023-12-20T10:46:30;9.80;66.40
83964;DHT22;73994;50.868;5.420;2023-12-20T10:48:58;8.80;68.60
83964;DHT22;73994;50.868;5.420;2023-12-20T10:51:24;8.50;71.10
83964;DHT22;73994;50.868;5.420;2023-12-20T10:53:52;8.40;70.50
83964;DHT22;73994;50.868;5.420;2023-12-20T10:56:19;8.30;73.30
83964;DHT22;73994;50.868;5.420;2023-12-20T10:58:46;8.30;72.20
83964;DHT22;73994;50.868;5.420;2023-12-20T11:01:19;8.20;71.50
83964;DHT22;73994;50.868;5.420;2023-12-20T11:03:52;8.20;72.20
83964;DHT22;73994;50.868;5.420;2023-12-20T11:06:44;8.00;71.50
83964;DHT22;73994;50.868;5.420;2023-12-20T11:09:17;8.10;73.90
83964;DHT22;73994;50.868;5.420;2023-12-20T11:12:10;8.00;74.30
83964;DHT22;73994;50.868;5.420;2023-12-20T11:14:48;7.80;72.20
83964;DHT22;73994;50.868;5.420;2023-12-20T11:17:15;7.60;74.70
83964;DHT22;73994;50.868;5.420;2023-12-20T11:22:24;7.40;73.60
83964;DHT22;73994;50.868;5.420;2023-12-20T11:24:51;7.30;72.30
83964;DHT22;73994;50.868;5.420;2023-12-20T11:27:18;7.30;74.40
83964;DHT22;73994;50.868;5.420;2023-12-20T11:29:51;7.30;73.00
83964;DHT22;73994;50.868;5.420;2023-12-20T11:37:34;7.30;73.90
83964;DHT22;73994;50.868;5.420;2023-12-20T11:40:06;7.20;73.80
83964;DHT22;73994;50.868;5.420;2023-12-20T11:42:43;7.40;73.20
83964;DHT22;73994;50.868;5.420;2023-12-20T11:45:11;7.40;73.50
83964;DHT22;73994;50.868;5.420;2023-12-20T11:47:37;7.40;72.40
83964;DHT22;73994;50.868;5.420;2023-12-20T11:50:03;7.40;73.10
83964;DHT22;73994;50.868;5.420;2023-12-20T11:52:30;7.40;73.30
83964;DHT22;73994;50.868;5.420;2023-12-20T11:54:56;7.40;72.30
83964;DHT22;73994;50.868;5.420;2023-12-20T11:57:22;7.40;72.40
83964;DHT22;73994;50.868;5.420;2023-12-20T11:59:48;7.40;72.90
83964;DHT22;73994;50.868;5.420;2023-12-20T12:02:14;7.50;73.10
83964;DHT22;73994;50.868;5.420;2023-12-20T12:04:43;7.50;72.20
83964;DHT22;73994;50.868;5.420;2023-12-20T12:07:08;7.50;72.90
83964;DHT22;73994;50.868;5.420;2023-12-20T12:09:35;7.50;72.00
83964;DHT22;73994;50.868;5.420;2023-12-20T12:12:01;7.60;72.40
83964;DHT22;73994;50.868;5.420;2023-12-20T12:14:27;7.80;74.30
83964;DHT22;73994;50.868;5.420;2023-12-20T12:16:52;8.10;74.10
83964;DHT22;73994;50.868;5.420;2023-12-20T12:19:22;8.30;72.80
83964;DHT22;73994;50.868;5.420;2023-12-20T12:21:51;8.10;71.70
83964;DHT22;73994;50.868;5.420;2023-12-20T12:24:29;8.10;72.10
83964;DHT22;73994;50.868;5.420;2023-12-20T12:26:57;7.80;75.20
83964;DHT22;73994;50.868;5.420;2023-12-20T12:29:24;7.70;75.50
83964;DHT22;73994;50.868;5.420;2023-12-20T12:31:52;7.60;74.30
83964;DHT22;73994;50.868;5.420;2023-12-20T12:34:18;7.60;75.70
83964;DHT22;73994;50.868;5.420;2023-12-20T12:36:45;7.50;75.00
83964;DHT22;73994;50.868;5.420;2023-12-20T12:39:14;7.40;77.60
83964;DHT22;73994;50.868;5.420;2023-12-20T12:41:44;7.40;77.00
83964;DHT22;73994;50.868;5.420;2023-12-20T12:44:10;7.30;77.20
83964;DHT22;73994;50.868;5.420;2023-12-20T12:46:36;7.10;77.20
83964;DHT22;73994;50.868;5.420;2023-12-20T12:49:02;7.00;77.90
83964;DHT22;73994;50.868;5.420;2023-12-20T12:51:27;7.00;78.80
83964;DHT22;73994;50.868;5.420;2023-12-20T12:53:53;7.00;78.70
83964;DHT22;73994;50.868;5.420;2023-12-20T12:56:19;7.10;78.90
83964;DHT22;73994;50.868;5.420;2023-12-20T12:58:45;7.20;77.80
83964;DHT22;73994;50.868;5.420;2023-12-20T13:01:11;7.20;78.00
83964;DHT22;73994;50.868;5.420;2023-12-20T13:03:37;7.10;79.20
83964;DHT22;73994;50.868;5.420;2023-12-20T13:06:03;7.10;78.90
83964;DHT22;73994;50.868;5.420;2023-12-20T13:08:31;7.00;77.00
83964;DHT22;73994;50.868;5.420;2023-12-20T13:10:56;7.10;78.80
83964;DHT22;73994;50.868;5.420;2023-12-20T13:13:26;7.20;78.40
83964;DHT22;73994;50.868;5.420;2023-12-20T13:15:52;7.20;77.30
83964;DHT22;73994;50.868;5.420;2023-12-20T13:18:21;7.30;76.90
83964;DHT22;73994;50.868;5.420;2023-12-20T13:20:47;7.30;77.80
83964;DHT22;73994;50.868;5.420;2023-12-20T13:23:13;7.40;76.70
83964;DHT22;73994;50.868;5.420;2023-12-20T13:25:39;7.50;76.70
83964;DHT22;73994;50.868;5.420;2023-12-20T13:28:05;8.10;76.00
83964;DHT22;73994;50.868;5.420;2023-12-20T13:30:31;9.00;73.10
83964;DHT22;73994;50.868;5.420;2023-12-20T13:32:57;9.30;71.90
83964;DHT22;73994;50.868;5.420;2023-12-20T13:35:22;10.00;70.70
83964;DHT22;73994;50.868;5.420;2023-12-20T13:37:48;10.10;69.40
83964;DHT22;73994;50.868;5.420;2023-12-20T13:40:14;10.10;70.50
83964;DHT22;73994;50.868;5.420;2023-12-20T13:42:39;9.90;70.90
83964;DHT22;73994;50.868;5.420;2023-12-20T13:45:06;9.50;70.90
83964;DHT22;73994;50.868;5.420;2023-12-20T13:47:32;9.00;71.80
83964;DHT22;73994;50.868;5.420;2023-12-20T13:49:58;8.60;72.50
83964;DHT22;73994;50.868;5.420;2023-12-20T13:52:24;8.40;73.80
83964;DHT22;73994;50.868;5.420;2023-12-20T13:54:51;8.30;73.30
83964;DHT22;73994;50.868;5.420;2023-12-20T13:57:17;8.20;73.60
83964;DHT22;73994;50.868;5.420;2023-12-20T13:59:42;8.10;73.40
83964;DHT22;73994;50.868;5.420;2023-12-20T14:02:08;8.00;73.90
83964;DHT22;73994;50.868;5.420;2023-12-20T14:04:34;7.80;75.20
83964;DHT22;73994;50.868;5.420;2023-12-20T14:07:00;7.60;74.60
83964;DHT22;73994;50.868;5.420;2023-12-20T14:09:26;7.60;75.80
83964;DHT22;73994;50.868;5.420;2023-12-20T14:11:51;7.60;75.90
83964;DHT22;73994;50.868;5.420;2023-12-20T14:14:17;7.50;76.00
83964;DHT22;73994;50.868;5.420;2023-12-20T14:16:43;7.50;75.70
83964;DHT22;73994;50.868;5.420;2023-12-20T14:19:11;7.50;76.50
83964;DHT22;73994;50.868;5.420;2023-12-20T14:21:36;7.50;76.70
83964;DHT22;73994;50.868;5.420;2023-12-20T14:24:02;7.50;77.00
83964;DHT22;73994;50.868;5.420;2023-12-20T14:26:29;7.50;76.50
83964;DHT22;73994;50.868;5.420;2023-12-20T14:28:55;7.50;77.50
83964;DHT22;73994;50.868;5.420;2023-12-20T14:31:21;7.50;76.50
83964;DHT22;73994;50.868;5.420;2023-12-20T14:33:49;7.50;76.30
83964;DHT22;73994;50.868;5.420;2023-12-20T14:36:16;7.50;76.10
83964;DHT22;73994;50.868;5.420;2023-12-20T14:38:43;7.60;76.40
83964;DHT22;73994;50.868;5.420;2023-12-20T14:41:09;7.60;76.00
83964;DHT22;73994;50.868;5.420;2023-12-20T14:43:35;7.60;76.60
83964;DHT22;73994;50.868;5.420;2023-12-20T14:46:00;7.50;76.30
83964;DHT22;73994;50.868;5.420;2023-12-20T14:48:26;7.50;76.30
83964;DHT22;73994;50.868;5.420;2023-12-20T14:50:53;7.50;76.30
83964;DHT22;73994;50.868;5.420;2023-12-20T14:53:19;7.50;76.30
83964;DHT22;73994;50.868;5.420;2023-12-20T14:55:45;7.50;76.40
83964;DHT22;73994;50.868;5.420;2023-12-20T14:58:11;7.50;76.50
83964;DHT22;73994;50.868;5.420;2023-12-20T15:00:37;7.50;76.60
83964;DHT22;73994;50.868;5.420;2023-12-20T15:03:03;7.50;76.30
83964;DHT22;73994;50.868;5.420;2023-12-20T15:05:30;7.50;76.20
83964;DHT22;73994;50.868;5.420;2023-12-20T15:07:56;7.50;75.90
83964;DHT22;73994;50.868;5.420;2023-12-20T15:10:22;7.50;76.30
83964;DHT22;73994;50.868;5.420;2023-12-20T15:12:47;7.50;76.20
83964;DHT22;73994;50.868;5.420;2023-12-20T15:15:13;7.50;76.10
83964;DHT22;73994;50.868;5.420;2023-12-20T15:17:39;7.50;75.90
83964;DHT22;73994;50.868;5.420;2023-12-20T15:20:05;7.50;75.90
83964;DHT22;73994;50.868;5.420;2023-12-20T15:22:31;7.50;75.50
83964;DHT22;73994;50.868;5.420;2023-12-20T15:24:59;7.50;75.80
83964;DHT22;73994;50.868;5.420;2023-12-20T15:27:26;7.50;75.80
83964;DHT22;73994;50.868;5.420;2023-12-20T15:29:52;7.50;75.60
83964;DHT22;73994;50.868;5.420;2023-12-20T15:32:18;7.50;75.90
83964;DHT22;73994;50.868;5.420;2023-12-20T15:34:46;7.50;75.60
83964;DHT22;73994;50.868;5.420;2023-12-20T15:37:12;7.50;76.10
83964;DHT22;73994;50.868;5.420;2023-12-20T15:39:37;7.50;76.00
83964;DHT22;73994;50.868;5.420;2023-12-20T15:42:03;7.50;75.80
83964;DHT22;73994;50.868;5.420;2023-12-20T15:44:29;7.50;75.70
83964;DHT22;73994;50.868;5.420;2023-12-20T15:46:55;7.50;75.80
83964;DHT22;73994;50.868;5.420;2023-12-20T15:49:20;7.50;75.50
83964;DHT22;73994;50.868;5.420;2023-12-20T15:51:46;7.50;75.60